createdAt,value
2022-10-21T00:01:57.116Z,9.65
2022-10-21T00:04:24.470Z,10.38
2022-10-21T00:06:51.817Z,10.48
2022-10-21T00:09:20.479Z,10.38
2022-10-21T00:11:47.808Z,11.25
2022-10-21T00:14:15.349Z,10.57
2022-10-21T00:16:42.775Z,10.50
2022-10-21T00:19:10.117Z,10.30
2022-10-21T00:21:37.802Z,10.98
2022-10-21T00:24:05.724Z,10.88
2022-10-21T00:26:37.617Z,11.32
2022-10-21T00:29:06.089Z,10.98
2022-10-21T00:31:33.821Z,11.00
2022-10-21T00:34:01.203Z,10.80
2022-10-21T00:36:28.527Z,11.00
2022-10-21T00:38:57.708Z,11.13
2022-10-21T00:41:25.051Z,10.98
2022-10-21T00:43:59.612Z,11.43
2022-10-21T00:46:39.729Z,11.57
2022-10-21T00:49:09.186Z,12.30
2022-10-21T00:51:36.985Z,11.77
2022-10-21T00:54:05.422Z,12.07
2022-10-21T00:56:34.672Z,12.63
2022-10-21T00:59:04.933Z,11.93
2022-10-21T01:01:32.367Z,11.68
2022-10-21T01:04:01.413Z,11.38
2022-10-21T01:06:28.986Z,12.25
2022-10-21T01:08:57.566Z,11.88
2022-10-21T01:11:25.753Z,12.25
2022-10-21T01:14:19.735Z,11.45
2022-10-21T01:16:50.812Z,11.70
2022-10-21T01:19:34.264Z,12.13
2022-10-21T01:22:07.035Z,11.50
2022-10-21T01:25:00.002Z,11.52
2022-10-21T01:27:37.861Z,12.65
2022-10-21T01:30:10.698Z,12.40
2022-10-21T01:32:48.581Z,11.23
2022-10-21T01:35:21.376Z,11.60
2022-10-21T01:37:53.992Z,12.30
2022-10-21T01:40:22.661Z,11.80
2022-10-21T01:42:52.589Z,12.73
2022-10-21T01:45:23.008Z,11.93
2022-10-21T01:47:54.929Z,12.65
2022-10-21T01:50:24.428Z,12.23
2022-10-21T01:52:55.636Z,12.40
2022-10-21T01:55:24.543Z,12.50
2022-10-21T01:57:57.555Z,12.07
2022-10-21T02:03:00.663Z,12.70
2022-10-21T02:05:30.730Z,12.88
2022-10-21T02:07:58.080Z,12.50
2022-10-21T02:10:29.018Z,12.15
2022-10-21T02:12:59.779Z,12.45
2022-10-21T02:15:28.529Z,12.43
2022-10-21T02:17:57.867Z,12.95
2022-10-21T02:20:28.289Z,12.43
2022-10-21T02:22:55.713Z,12.82
2022-10-21T02:25:26.586Z,12.00
2022-10-21T02:27:54.164Z,12.45
2022-10-21T02:30:21.723Z,12.80
2022-10-21T02:32:54.802Z,12.73
2022-10-21T02:35:29.239Z,12.13
2022-10-21T02:38:01.518Z,12.13
2022-10-21T02:40:32.076Z,12.65
2022-10-21T02:43:03.092Z,12.70
2022-10-21T02:45:30.463Z,13.10
2022-10-21T02:47:57.814Z,13.27
2022-10-21T02:50:25.144Z,12.38
2022-10-21T02:52:53.805Z,13.43
2022-10-21T02:55:21.135Z,13.25
2022-10-21T02:57:48.502Z,12.68
2022-10-21T03:00:16.414Z,13.30
2022-10-21T03:02:43.727Z,13.18
2022-10-21T03:05:12.848Z,12.65
2022-10-21T03:07:40.568Z,13.80
2022-10-21T03:10:10.223Z,13.30
2022-10-21T03:12:37.626Z,13.75
2022-10-21T03:15:05.584Z,13.18
2022-10-21T03:17:32.924Z,13.50
2022-10-21T03:20:00.264Z,13.50
2022-10-21T03:22:27.646Z,13.35
2022-10-21T03:24:54.980Z,13.00
2022-10-21T03:27:23.693Z,13.93
2022-10-21T03:29:51.079Z,14.13
2022-10-21T03:32:18.406Z,14.10
2022-10-21T03:34:45.735Z,14.20
2022-10-21T03:37:13.079Z,14.65
2022-10-21T03:39:40.414Z,14.32
2022-10-21T03:42:07.773Z,14.88
2022-10-21T03:44:36.425Z,15.05
2022-10-21T03:47:03.766Z,15.50
2022-10-21T03:49:31.563Z,15.20
2022-10-21T03:51:58.949Z,14.55
2022-10-21T03:54:26.343Z,14.95
2022-10-21T03:56:53.889Z,15.13
2022-10-21T03:59:21.235Z,15.25
2022-10-21T04:01:50.029Z,16.55
2022-10-21T04:04:17.410Z,15.25
2022-10-21T04:06:44.781Z,16.20
2022-10-21T04:09:12.243Z,15.10
2022-10-21T04:11:39.657Z,14.77
2022-10-21T04:14:10.235Z,15.40
2022-10-21T04:16:40.412Z,14.52
2022-10-21T04:19:09.207Z,15.05
2022-10-21T04:21:36.560Z,15.35
2022-10-21T04:24:04.483Z,15.30
2022-10-21T04:26:31.808Z,15.02
2022-10-21T04:28:59.137Z,15.38
2022-10-21T04:31:29.865Z,15.38
2022-10-21T04:33:59.429Z,14.83
2022-10-21T04:36:28.080Z,15.10
2022-10-21T04:38:55.417Z,14.68
2022-10-21T04:41:22.764Z,15.85
2022-10-21T04:43:50.090Z,14.90
2022-10-21T04:46:17.463Z,15.43
2022-10-21T04:48:44.912Z,14.65
2022-10-21T04:51:12.263Z,15.10
2022-10-21T04:53:40.904Z,15.98
2022-10-21T04:56:08.547Z,15.35
2022-10-21T04:58:35.888Z,15.43
2022-10-21T05:01:03.499Z,15.63
2022-10-21T05:03:30.918Z,15.40
2022-10-21T05:05:58.280Z,15.18
2022-10-21T05:08:25.684Z,14.60
2022-10-21T05:11:00.097Z,15.05
2022-10-21T05:13:27.446Z,14.95
2022-10-21T05:15:58.733Z,15.68
2022-10-21T05:18:26.076Z,16.10
2022-10-21T05:20:54.312Z,15.38
2022-10-21T05:23:21.817Z,16.15
2022-10-21T05:25:50.518Z,15.35
2022-10-21T05:28:19.587Z,15.63
2022-10-21T05:30:47.247Z,16.02
2022-10-21T05:33:15.134Z,15.68
2022-10-21T05:35:42.483Z,15.02
2022-10-21T05:38:09.836Z,15.85
2022-10-21T05:40:37.170Z,15.85
2022-10-21T05:43:04.557Z,15.93
2022-10-21T05:45:33.201Z,15.63
2022-10-21T05:48:00.521Z,15.95
2022-10-21T05:50:27.863Z,15.40
2022-10-21T05:52:58.598Z,16.10
2022-10-21T05:55:26.119Z,15.73
2022-10-21T05:57:53.469Z,15.77
2022-10-21T06:00:20.906Z,16.85
2022-10-21T06:02:49.568Z,16.33
2022-10-21T06:05:17.020Z,16.52
2022-10-21T06:07:44.359Z,17.15
2022-10-21T06:10:12.326Z,17.17
2022-10-21T06:12:40.021Z,17.40
2022-10-21T06:15:08.376Z,17.50
2022-10-21T06:17:35.887Z,17.35
2022-10-21T06:20:05.469Z,17.55
2022-10-21T06:22:32.858Z,18.60
2022-10-21T06:25:00.223Z,18.25
2022-10-21T06:27:27.568Z,18.77
2022-10-21T06:29:54.934Z,18.65
2022-10-21T06:32:22.258Z,19.35
2022-10-21T06:34:49.585Z,18.85
2022-10-21T06:37:18.346Z,20.40
2022-10-21T06:39:45.677Z,19.15
2022-10-21T06:42:14.893Z,19.50
2022-10-21T06:44:44.834Z,19.73
2022-10-21T06:47:12.187Z,19.65
2022-10-21T06:49:39.517Z,18.70
2022-10-21T06:52:06.859Z,17.75
2022-10-21T06:54:35.516Z,17.35
2022-10-21T06:57:02.881Z,17.63
2022-10-21T06:59:30.492Z,17.25
2022-10-21T07:02:00.692Z,18.45
2022-10-21T07:04:28.827Z,17.42
2022-10-21T07:06:56.205Z,18.00
2022-10-21T07:09:23.626Z,16.20
2022-10-21T07:11:52.326Z,17.20
2022-10-21T07:14:19.692Z,16.17
2022-10-21T07:16:47.153Z,15.18
2022-10-21T07:19:14.930Z,15.90
2022-10-21T07:21:42.290Z,15.45
2022-10-21T07:24:10.888Z,16.25
2022-10-21T07:26:38.240Z,15.43
2022-10-21T07:29:07.035Z,13.88
2022-10-21T07:31:37.451Z,15.25
2022-10-21T07:34:07.081Z,14.68
2022-10-21T07:36:36.802Z,14.10
2022-10-21T07:39:07.489Z,14.68
2022-10-21T07:41:37.164Z,14.68
2022-10-21T07:44:06.848Z,14.25
2022-10-21T07:46:35.528Z,13.88
2022-10-21T07:49:02.861Z,14.38
2022-10-21T07:51:31.404Z,13.55
2022-10-21T07:54:00.697Z,14.45
2022-10-21T07:56:29.932Z,13.55
2022-10-21T07:58:57.584Z,13.88
2022-10-21T08:01:26.423Z,14.45
2022-10-21T08:03:54.406Z,14.30
2022-10-21T08:06:22.765Z,13.32
2022-10-21T08:08:50.232Z,13.70
2022-10-21T08:11:22.269Z,13.35
2022-10-21T08:13:49.635Z,13.65
2022-10-21T08:16:17.105Z,13.25
2022-10-21T08:18:45.940Z,15.20
2022-10-21T08:21:13.477Z,13.43
2022-10-21T08:23:40.823Z,14.15
2022-10-21T08:26:10.634Z,15.10
2022-10-21T08:28:38.035Z,13.40
2022-10-21T08:31:06.290Z,13.07
2022-10-21T08:33:33.636Z,12.80
2022-10-21T08:36:06.044Z,12.52
2022-10-21T08:38:33.412Z,12.63
2022-10-21T08:41:01.648Z,12.73
2022-10-21T08:43:31.149Z,13.25
2022-10-21T08:46:02.207Z,13.57
2022-10-21T08:48:32.392Z,12.90
2022-10-21T08:51:01.951Z,12.45
2022-10-21T08:53:33.558Z,13.25
2022-10-21T08:56:03.857Z,14.07
2022-10-21T08:58:31.396Z,13.00
2022-10-21T09:01:03.220Z,13.55
2022-10-21T09:03:38.170Z,12.52
2022-10-21T09:06:21.232Z,14.18
2022-10-21T09:08:59.923Z,14.35
2022-10-21T09:11:35.168Z,13.18
2022-10-21T09:14:14.286Z,14.50
2022-10-21T09:16:47.856Z,13.95
2022-10-21T09:19:24.022Z,13.40
2022-10-21T09:22:29.647Z,12.70
2022-10-21T09:24:56.687Z,13.02
2022-10-21T09:27:32.290Z,12.95
2022-10-21T09:30:15.937Z,12.25
2022-10-21T09:32:49.588Z,10.82
2022-10-21T09:35:23.948Z,10.63
2022-10-21T09:37:55.673Z,10.85
2022-10-21T09:40:24.673Z,10.82
2022-10-21T09:42:55.617Z,9.50
2022-10-21T09:45:27.627Z,10.00
2022-10-21T09:47:58.198Z,10.18
2022-10-21T09:50:26.957Z,10.43
2022-10-21T09:52:59.066Z,10.57
2022-10-21T09:55:26.739Z,11.35
2022-10-21T09:57:57.142Z,10.70
2022-10-21T10:00:41.861Z,11.13
2022-10-21T10:03:09.767Z,11.90
2022-10-21T10:05:39.395Z,12.35
2022-10-21T10:08:25.588Z,11.63
2022-10-21T10:10:53.156Z,11.57
2022-10-21T10:13:24.226Z,10.52
2022-10-21T10:15:51.631Z,10.93
2022-10-21T10:18:22.953Z,10.25
2022-10-21T10:21:05.321Z,9.57
2022-10-21T10:23:43.918Z,9.38
2022-10-21T10:26:12.971Z,10.75
2022-10-21T10:31:08.892Z,9.63
2022-10-21T10:33:36.768Z,10.52
2022-10-21T10:36:09.408Z,9.75
2022-10-21T10:38:42.553Z,8.33
2022-10-21T10:41:12.207Z,6.80
2022-10-21T10:43:46.218Z,8.30
2022-10-21T10:46:24.051Z,8.57
2022-10-21T10:48:53.183Z,8.32
2022-10-21T10:51:25.848Z,7.72
2022-10-21T10:54:17.531Z,8.15
2022-10-21T10:56:49.605Z,7.47
2022-10-21T10:59:23.589Z,7.65
2022-10-21T11:01:54.499Z,7.88
2022-10-21T11:04:26.482Z,8.45
2022-10-21T11:06:57.548Z,7.60
2022-10-21T11:09:27.523Z,8.45
2022-10-21T11:11:56.278Z,8.10
2022-10-21T11:14:23.632Z,9.20
2022-10-21T11:17:01.654Z,8.50
2022-10-21T11:19:36.764Z,9.40
2022-10-21T11:22:13.499Z,9.18
2022-10-21T11:24:55.626Z,9.50
2022-10-21T11:27:55.337Z,9.65
2022-10-21T11:30:24.125Z,9.07
2022-10-21T11:33:01.642Z,8.88
2022-10-21T11:35:35.303Z,8.30
2022-10-21T11:38:20.116Z,7.88
2022-10-21T11:40:50.235Z,9.02
2022-10-21T11:43:27.900Z,9.20
2022-10-21T11:46:00.916Z,8.68
2022-10-21T11:48:37.550Z,9.50
2022-10-21T11:51:14.271Z,8.75
2022-10-21T11:53:56.185Z,7.97
2022-10-21T11:56:29.160Z,8.15
2022-10-21T11:59:05.300Z,7.78
2022-10-21T12:01:38.804Z,8.20
2022-10-21T12:04:24.382Z,8.27
2022-10-21T12:07:02.471Z,8.48
2022-10-21T12:09:31.823Z,9.10
2022-10-21T12:12:05.849Z,9.05
2022-10-21T12:14:35.235Z,9.40
2022-10-21T12:17:04.300Z,9.07
2022-10-21T12:19:31.839Z,9.73
2022-10-21T12:21:59.440Z,9.35
2022-10-21T12:24:36.498Z,9.52
2022-10-21T12:27:10.765Z,9.95
2022-10-21T12:29:50.665Z,9.88
2022-10-21T12:32:23.648Z,10.15
2022-10-21T12:34:51.006Z,10.10
2022-10-21T12:38:01.277Z,10.20
2022-10-21T12:40:37.334Z,10.30
2022-10-21T12:43:07.675Z,9.90
2022-10-21T12:45:36.775Z,9.90
2022-10-21T12:48:08.091Z,9.98
2022-10-21T12:50:35.783Z,9.95
2022-10-21T12:53:14.432Z,9.40
2022-10-21T12:55:42.316Z,9.35
2022-10-21T12:58:23.907Z,8.93
2022-10-21T13:00:56.711Z,10.07
2022-10-21T13:03:56.005Z,10.20
2022-10-21T13:06:51.814Z,9.90
2022-10-21T13:09:37.578Z,10.02
2022-10-21T13:12:15.642Z,9.80
2022-10-21T13:14:45.324Z,8.85
2022-10-21T13:17:49.783Z,9.70
2022-10-21T13:20:46.522Z,9.68
2022-10-21T13:23:41.318Z,9.15
2022-10-21T13:26:19.318Z,8.40
2022-10-21T13:28:57.669Z,8.65
2022-10-21T13:31:25.080Z,9.85
2022-10-21T13:33:53.546Z,9.50
2022-10-21T13:39:19.032Z,10.18
2022-10-21T13:41:46.456Z,9.93
2022-10-21T13:44:27.329Z,9.90
2022-10-21T13:46:54.635Z,9.80
2022-10-21T13:49:30.061Z,9.75
2022-10-21T13:51:59.157Z,9.80
2022-10-21T13:54:26.584Z,10.25
2022-10-21T13:56:53.912Z,10.27
2022-10-21T13:59:25.950Z,10.43
2022-10-21T14:01:55.071Z,9.70
2022-10-21T14:04:24.768Z,9.50
2022-10-21T14:06:54.135Z,10.10
2022-10-21T14:09:25.132Z,10.23
2022-10-21T14:11:54.098Z,10.10
2022-10-21T14:14:24.071Z,10.50
2022-10-21T14:16:54.081Z,10.43
2022-10-21T14:19:23.412Z,9.98
2022-10-21T14:21:53.737Z,9.73
2022-10-21T14:24:29.426Z,10.25
2022-10-21T14:26:57.564Z,10.38
2022-10-21T14:29:28.012Z,10.60
2022-10-21T14:31:55.448Z,10.40
2022-10-21T14:34:23.661Z,10.18
2022-10-21T14:37:01.476Z,10.25
2022-10-21T14:39:30.470Z,10.38
2022-10-21T14:42:02.987Z,10.48
2022-10-21T14:44:31.314Z,11.23
2022-10-21T14:46:59.477Z,10.13
2022-10-21T14:49:29.456Z,11.75
2022-10-21T14:52:01.801Z,12.75
2022-10-21T14:54:38.664Z,10.88
2022-10-21T14:57:06.131Z,10.63
2022-10-21T14:59:39.343Z,10.55
2022-10-21T15:02:07.026Z,8.20
2022-10-21T15:04:51.091Z,11.15
2022-10-21T15:10:16.127Z,11.40
2022-10-21T15:12:44.685Z,10.40
2022-10-21T15:15:54.450Z,11.10
2022-10-21T15:18:23.579Z,10.05
2022-10-21T15:20:56.821Z,11.18
2022-10-21T15:23:27.961Z,13.27
2022-10-21T15:26:00.734Z,18.70
2022-10-21T15:28:30.554Z,17.20
2022-10-21T15:30:59.452Z,13.32
2022-10-21T15:33:27.180Z,11.50
2022-10-21T15:36:01.858Z,12.27
2022-10-21T15:38:29.201Z,11.55
2022-10-21T15:40:57.884Z,12.20
2022-10-21T15:43:25.211Z,11.90
2022-10-21T15:45:52.596Z,12.45
2022-10-21T15:48:19.985Z,11.48
2022-10-21T15:50:47.363Z,11.45
2022-10-21T15:53:14.697Z,12.20
2022-10-21T15:55:42.939Z,11.60
2022-10-21T15:58:11.802Z,11.32
2022-10-21T16:00:40.948Z,12.05
2022-10-21T16:03:08.544Z,12.50
2022-10-21T16:05:36.008Z,12.48
2022-10-21T16:08:03.380Z,12.00
2022-10-21T16:10:34.274Z,12.98
2022-10-21T16:13:01.965Z,13.68
2022-10-21T16:15:30.676Z,13.10
2022-10-21T16:17:58.519Z,12.82
2022-10-21T16:20:28.542Z,13.10
2022-10-21T16:22:59.198Z,13.40
2022-10-21T16:25:29.453Z,12.93
2022-10-21T16:27:56.994Z,12.48
2022-10-21T16:30:26.536Z,13.82
2022-10-21T16:32:55.349Z,13.10
2022-10-21T16:35:22.712Z,13.32
2022-10-21T16:37:50.735Z,12.88
2022-10-21T16:40:21.304Z,13.98
2022-10-21T16:42:49.237Z,15.60
2022-10-21T16:45:17.157Z,20.35
2022-10-21T16:47:48.173Z,17.58
2022-10-21T16:50:20.850Z,16.85
2022-10-21T16:52:48.202Z,19.63
2022-10-21T16:55:16.451Z,18.67
2022-10-21T16:57:43.924Z,16.90
2022-10-21T17:00:12.897Z,17.65
2022-10-21T17:02:40.690Z,17.25
2022-10-21T17:05:09.066Z,17.27
2022-10-21T17:07:38.105Z,18.83
2022-10-21T17:10:06.388Z,18.23
2022-10-21T17:12:34.675Z,18.65
2022-10-21T17:15:02.463Z,20.23
2022-10-21T17:17:29.912Z,21.35
2022-10-21T17:19:57.277Z,23.05
2022-10-21T17:22:24.720Z,23.67
2022-10-21T17:24:53.399Z,23.50
2022-10-21T17:27:21.515Z,23.95
2022-10-21T17:29:48.851Z,23.05
2022-10-21T17:32:16.204Z,22.67
2022-10-21T17:34:43.541Z,23.75
2022-10-21T17:37:12.079Z,24.20
2022-10-21T17:39:40.846Z,22.70
2022-10-21T17:42:10.564Z,25.05
2022-10-21T17:44:37.909Z,24.98
2022-10-21T17:47:05.253Z,25.27
2022-10-21T17:49:32.578Z,24.75
2022-10-21T17:52:00.008Z,26.92
2022-10-21T17:54:29.262Z,26.60
2022-10-21T17:56:58.205Z,25.55
2022-10-21T17:59:27.106Z,32.22
2022-10-21T18:01:54.472Z,45.83
2022-10-21T18:04:21.812Z,32.90
2022-10-21T18:06:49.187Z,28.38
2022-10-21T18:09:16.655Z,29.10
2022-10-21T18:11:44.223Z,29.92
2022-10-21T18:14:11.567Z,29.95
2022-10-21T18:16:41.149Z,29.98
2022-10-21T18:19:08.494Z,31.08
2022-10-21T18:21:35.852Z,29.98
2022-10-21T18:24:03.217Z,31.00
2022-10-21T18:26:31.949Z,31.00
2022-10-21T18:29:00.992Z,32.17
2022-10-21T18:31:30.395Z,33.45
2022-10-21T18:34:00.555Z,31.70
2022-10-21T18:36:28.476Z,31.23
2022-10-21T18:38:56.279Z,30.10
2022-10-21T18:41:23.762Z,29.42
2022-10-21T18:43:53.446Z,31.63
2022-10-21T18:46:22.338Z,30.50
2022-10-21T18:48:50.198Z,29.60
2022-10-21T18:51:19.680Z,28.70
2022-10-21T18:53:49.970Z,27.35
2022-10-21T18:56:20.679Z,27.65
2022-10-21T18:58:48.155Z,28.25
2022-10-21T19:01:15.808Z,27.15
2022-10-21T19:03:43.280Z,27.58
2022-10-21T19:06:20.348Z,25.88
2022-10-21T19:08:48.011Z,25.58
2022-10-21T19:11:15.375Z,21.95
2022-10-21T19:13:42.694Z,22.38
2022-10-21T19:16:10.067Z,20.45
2022-10-21T19:18:38.330Z,19.13
2022-10-21T19:21:06.044Z,20.30
2022-10-21T19:23:34.707Z,18.63
2022-10-21T19:26:03.312Z,18.83
2022-10-21T19:28:30.978Z,19.02
2022-10-21T19:30:58.655Z,18.98
2022-10-21T19:33:26.389Z,20.23
2022-10-21T19:35:53.987Z,19.08
2022-10-21T19:38:39.592Z,19.15
2022-10-21T19:41:11.904Z,19.20
2022-10-21T19:43:39.448Z,20.05
2022-10-21T19:46:07.927Z,19.48
2022-10-21T19:48:36.780Z,18.27
2022-10-21T19:51:04.766Z,19.02
2022-10-21T19:53:33.173Z,19.98
2022-10-21T19:56:02.396Z,20.25
2022-10-21T19:58:32.003Z,21.23
2022-10-21T20:01:03.276Z,23.60
2022-10-21T20:03:30.821Z,24.17
2022-10-21T20:05:58.261Z,22.15
2022-10-21T20:11:01.091Z,22.13
2022-10-21T20:13:30.935Z,22.92
2022-10-21T20:15:58.970Z,24.08
2022-10-21T20:18:27.637Z,21.13
2022-10-21T20:20:55.259Z,19.35
2022-10-21T20:23:22.665Z,19.50
2022-10-21T20:25:51.004Z,21.67
2022-10-21T20:28:18.369Z,40.35
2022-10-21T20:30:56.149Z,23.30
2022-10-21T20:33:23.496Z,28.98
2022-10-21T20:35:50.961Z,23.23
2022-10-21T20:38:18.484Z,21.92
2022-10-21T20:40:45.873Z,22.02
2022-10-21T20:43:13.489Z,27.75
2022-10-21T20:45:40.832Z,32.58
2022-10-21T20:48:09.514Z,24.65
2022-10-21T20:50:36.850Z,25.23
2022-10-21T20:53:04.209Z,35.33
2022-10-21T20:55:31.684Z,60.28
2022-10-21T20:57:59.048Z,52.60
2022-10-21T21:00:26.372Z,32.88
2022-10-21T21:02:53.713Z,49.72
2022-10-21T21:05:22.428Z,46.03
2022-10-21T21:07:49.818Z,43.47
2022-10-21T21:10:17.217Z,44.45
2022-10-21T21:12:44.560Z,39.47
2022-10-21T21:15:11.997Z,49.70
2022-10-21T21:17:39.319Z,46.25
2022-10-21T21:20:07.949Z,34.30
2022-10-21T21:22:37.889Z,29.05
2022-10-21T21:25:06.556Z,28.70
2022-10-21T21:27:33.900Z,29.27
2022-10-21T21:30:01.275Z,28.33
2022-10-21T21:32:28.756Z,29.80
2022-10-21T21:34:56.271Z,27.88
2022-10-21T21:37:24.019Z,29.25
2022-10-21T21:39:53.055Z,30.23
2022-10-21T21:42:20.391Z,29.08
2022-10-21T21:44:47.885Z,29.35
2022-10-21T21:47:15.208Z,28.83
2022-10-21T21:49:42.537Z,28.48
2022-10-21T21:52:09.864Z,28.38
2022-10-21T21:54:37.208Z,27.55
2022-10-21T21:59:53.219Z,28.48
2022-10-21T22:02:20.539Z,27.17
2022-10-21T22:04:47.879Z,28.13
2022-10-21T22:07:15.255Z,28.60
2022-10-21T22:09:42.574Z,27.38
2022-10-21T22:12:14.426Z,28.52
2022-10-21T22:14:42.522Z,26.05
2022-10-21T22:17:09.869Z,25.60
2022-10-21T22:19:37.488Z,25.77
2022-10-21T22:22:05.009Z,25.67
2022-10-21T22:27:06.189Z,25.77
2022-10-21T22:29:35.141Z,24.95
2022-10-21T22:32:02.486Z,28.40
2022-10-21T22:34:29.841Z,27.10
2022-10-21T22:36:57.174Z,27.27
2022-10-21T22:39:25.525Z,27.45
2022-10-21T22:41:52.920Z,26.98
2022-10-21T22:44:21.988Z,27.55
2022-10-21T22:46:50.898Z,29.25
2022-10-21T22:49:18.364Z,28.33
2022-10-21T22:51:45.730Z,28.13
2022-10-21T22:54:29.637Z,28.92
2022-10-21T22:57:01.190Z,30.67
2022-10-21T22:59:28.549Z,30.17
2022-10-21T23:01:57.240Z,29.23
2022-10-21T23:04:24.573Z,30.15
2022-10-21T23:06:51.923Z,28.33
2022-10-21T23:09:19.502Z,29.58
2022-10-21T23:11:47.343Z,28.48
2022-10-21T23:14:14.678Z,30.17
2022-10-21T23:16:42.030Z,28.08
2022-10-21T23:21:43.037Z,28.88
2022-10-21T23:24:10.424Z,27.60
2022-10-21T23:26:37.865Z,27.27
2022-10-21T23:29:05.331Z,27.38
2022-10-21T23:31:32.673Z,25.50
2022-10-21T23:34:00.063Z,25.35
2022-10-21T23:36:28.726Z,25.13
2022-10-21T23:38:56.386Z,24.38
2022-10-21T23:41:24.184Z,23.67
2022-10-21T23:43:51.519Z,25.35
2022-10-21T23:46:18.909Z,23.55
2022-10-21T23:48:46.276Z,23.33
2022-10-21T23:51:13.683Z,23.15
2022-10-21T23:53:42.346Z,23.00
2022-10-21T23:56:09.702Z,25.60
2022-10-21T23:58:37.028Z,26.02
